Latest Weather Observations for Gunnedah Airport

IDN60801

Issued at 11:33 pm EDT Monday 2 March 2015 (issued every 30 minutes, with the page automatically refreshed every 10 minutes)

About weather observations | Map of weather stations | Latest weather observations for NSW | Other Formats
Station Details ID: 055202 Name: GUNNEDAH AIRPORT AWS Lat: -30.95 Lon: 150.25 Height: 262.57 m
Data from the previous 72 hours. | See also: Recent months at Gunnedah Airport
Date/Time
EDT
Temp
°C
App
Temp
°C
Dew
Point
Rel
Hum
%
Delta-T
°C
Wind Press
QNH
hPa
Press
MSL
hPa
Rain
since 9 am
mm
Dir
 
Spd
km/h
Gust
km/h
Spd
kts
Gust
kts
02/11:30pm 20.1 17.1 14.7 71 3.2 SE 24 30 13 16 1015.2 1014.0 0.0
02/11:00pm 20.6 17.6 14.7 69 3.5 SE 24 33 13 18 1014.9 1013.7 0.0
02/10:30pm 21.3 18.0 14.9 67 3.8 SE 26 35 14 19 1015.0 1013.8 0.0
02/10:00pm 22.1 18.8 15.0 64 4.3 SE 26 35 14 19 1014.9 1013.7 0.0
02/09:30pm 22.8 19.5 14.9 61 4.7 SE 26 33 14 18 1014.7 1013.5 0.0
02/09:00pm 23.9 20.6 14.9 57 5.4 SSE 26 37 14 20 1014.1 1013.0 0.0
02/08:30pm 24.8 21.1 14.9 54 6.0 SSE 28 35 15 19 1013.6 1012.5 0.0
02/08:00pm 25.9 22.2 15.0 51 6.6 SSE 28 37 15 20 1013.0 1011.9 0.0
02/07:30pm 27.0 23.2 14.7 47 7.5 SSE 28 37 15 20 1012.5 1011.3 0.0
02/07:00pm 29.6 26.2 13.8 38 9.6 SE 24 35 13 19 1011.8 1010.6 0.0
02/06:30pm 30.8 27.6 13.1 34 10.7 SE 22 37 12 20 1011.4 1010.2 0.0
02/06:00pm 31.6 28.7 12.9 32 11.3 SE 20 28 11 15 1011.1 1009.9 0.0
02/05:30pm 32.0 29.0 13.7 33 11.2 SE 22 30 12 16 1011.0 1009.8 0.0
02/05:00pm 32.4 29.9 14.1 33 11.3 SSE 20 33 11 18 1011.0 1009.8 0.0
02/04:30pm 32.3 29.6 13.5 32 11.5 SSE 20 32 11 17 1011.0 1009.8 0.0
02/04:00pm 32.7 29.3 13.8 31 11.6 SSE 24 35 13 19 1011.3 1010.1 0.0
02/03:30pm 32.8 31.7 14.4 33 11.4 ESE 13 22 7 12 1011.7 1010.5 0.0
02/03:00pm 32.3 30.3 14.0 33 11.2 SE 17 28 9 15 1012.1 1010.9 0.0
02/02:30pm 32.2 29.6 13.9 33 11.2 SSE 20 43 11 23 1012.5 1011.3 0.0
02/02:00pm 31.3 28.5 15.3 38 10.0 SE 24 35 13 19 1012.9 1011.7 0.0
02/01:30pm 30.7 28.6 14.8 38 9.8 SE 19 30 10 16 1013.5 1012.4 0.0
02/01:00pm 30.0 27.5 16.1 43 8.7 SSE 24 33 13 18 1014.3 1013.1 0.0
02/12:30pm 29.3 26.8 16.1 44 8.3 SE 24 32 13 17 1014.6 1013.4 0.0
02/12:00pm 28.2 25.1 15.5 46 7.9 SSE 26 35 14 19 1015.0 1013.8 0.0
02/11:30am 27.0 24.2 15.4 49 7.1 SE 24 35 13 19 1015.3 1014.1 0.0
02/11:00am 26.3 23.6 15.7 52 6.5 SE 24 33 13 18 1015.4 1014.2 0.0
02/10:30am 25.1 23.1 15.4 55 5.9 SE 20 30 11 16 1015.6 1014.4 0.0
02/10:00am 24.4 21.4 15.9 59 5.2 SE 26 32 14 17 1015.5 1014.3 0.0
02/09:30am 23.1 19.5 15.2 61 4.8 SE 28 35 15 19 1015.5 1014.3 0.0
02/09:00am 21.8 18.6 15.2 66 4.0 SE 26 35 14 19 1015.3 1014.1 1.4
02/08:30am 20.6 17.3 14.9 70 3.4 SE 26 35 14 19 1015.1 1013.9 1.4
02/08:00am 19.6 16.2 14.8 74 2.8 SSE 26 37 14 20 1014.9 1013.7 1.4
02/07:30am 18.7 14.8 14.4 76 2.5 SSE 28 35 15 19 1014.4 1013.2 1.4
02/07:00am 18.3 14.4 14.4 78 2.3 SSE 28 43 15 23 1014.0 1012.9 1.4
02/06:30am 18.4 14.1 14.3 77 2.4 SSE 30 39 16 21 1013.7 1012.6 1.4
02/06:00am 18.8 15.0 14.7 77 2.4 SSE 28 35 15 19 1013.3 1012.2 1.4
02/05:30am 19.0 15.3 14.9 77 2.4 SSE 28 43 15 23 1013.0 1011.9 1.4
02/05:00am 19.1 15.5 15.2 78 2.3 SSE 28 41 15 22 1012.6 1011.4 1.4
02/04:30am 19.0 14.5 15.3 79 2.2 SSE 33 43 18 23 1012.5 1011.3 1.4
02/04:00am 19.0 15.6 15.9 82 1.9 SSE 28 39 15 21 1012.4 1011.2 1.4
02/03:30am 19.6 16.4 16.3 81 2.0 SSE 28 35 15 19 1012.3 1011.1 1.4
02/03:00am 20.2 18.1 17.2 83 1.9 SSE 24 39 13 21 1012.6 1011.4 1.4
02/02:30am 20.2 18.6 17.4 84 1.7 SE 22 26 12 14 1012.5 1011.3 1.4
02/02:00am 20.5 19.3 17.5 83 1.9 SE 20 28 11 15 1012.5 1011.3 1.4
02/01:30am 20.6 19.7 17.8 84 1.7 SE 19 26 10 14 1012.6 1011.4 1.4
02/01:00am 20.5 20.0 17.9 85 1.6 SE 17 22 9 12 1012.5 1011.3 1.4
02/12:30am 20.9 19.9 17.9 83 1.9 SE 20 26 11 14 1012.5 1011.3 1.4
02/12:00am 21.7 20.4 18.1 80 2.3 SSE 22 30 12 16 1012.2 1011.0 1.4
 
Date/Time
EDT
Temp
°C
App
Temp
°C
Dew
Point
Rel
Hum
%
Delta-T
°C
Wind Press
QNH
hPa
Press
MSL
hPa
Rain
since 9 am
mm
Dir
 
Spd
km/h
Gust
km/h
Spd
kts
Gust
kts
01/11:30pm 21.0 21.2 18.6 86 1.5 SSE 15 19 8 10 1012.0 1010.8 1.4
01/11:00pm 21.0 20.6 18.8 87 1.4 SSE 19 26 10 14 1011.9 1010.7 1.4
01/10:30pm 20.2 21.4 18.3 89 1.2 S 9 11 5 6 1011.3 1010.1 1.4
01/10:00pm 20.6 21.9 18.5 88 1.3 SW 9 9 5 5 1011.2 1010.0 1.4
01/09:30pm 21.4 22.8 18.6 84 1.8 E 9 11 5 6 1010.1 1009.0 1.4
01/09:00pm 21.9 20.8 18.7 82 2.0 SE 22 32 12 17 1010.4 1009.2 1.4
01/08:30pm 21.9 22.3 19.1 84 1.8 SE 15 20 8 11 1009.2 1008.0 1.4
01/08:00pm 22.4 22.1 19.6 84 1.8 NW 20 32 11 17 1009.1 1007.9 1.2
01/07:54pm 22.2 21.1 19.4 84 1.8 W 24 32 13 17 1010.0 1008.9 1.2
01/07:32pm 22.6 18.6 18.4 77 2.7 WSW 37 56 20 30 1010.5 1009.3 0.4
01/07:30pm 23.1 18.5 18.0 73 3.2 WSW 39 56 21 30 1010.5 1009.3 0.2
01/07:22pm 26.6 26.0 18.5 61 5.2 SW 19 48 10 26 1009.8 1008.7 0.0
01/07:00pm 27.1 28.2 18.9 61 5.3 ESE 11 15 6 8 1008.1 1006.9 0.0
01/06:30pm 28.0 28.6 18.7 57 6.0 ESE 13 15 7 8 1006.8 1005.6 0.0
01/06:00pm 28.2 28.4 18.6 56 6.2 SE 15 20 8 11 1006.4 1005.2 0.0
01/05:30pm 30.1 29.9 18.5 49 7.5 SW 17 24 9 13 1006.3 1005.0 0.0
01/05:00pm 30.6 29.9 18.7 49 7.8 W 20 26 11 14 1006.8 1005.6 0.0
01/04:30pm 32.1 31.3 17.9 42 9.2 NW 19 26 10 14 1006.9 1005.7 0.0
01/04:00pm 32.0 31.4 17.5 42 9.4 NNW 17 24 9 13 1006.8 1005.6 0.0
01/03:30pm 33.1 32.6 16.9 38 10.4 NW 15 26 8 14 1006.8 1005.6 0.0
01/03:00pm 33.0 32.1 16.8 38 10.4 NNW 17 28 9 15 1007.3 1006.1 0.0
01/02:30pm 32.6 31.8 17.2 39 9.9 NW 17 28 9 15 1007.8 1006.6 0.0
01/02:00pm 32.0 30.6 17.1 41 9.6 NW 20 33 11 18 1008.2 1007.0 0.0
01/01:30pm 32.0 30.4 17.5 42 9.4 NW 22 37 12 20 1008.8 1007.6 0.0
01/01:00pm 31.3 30.0 17.2 42 9.1 WNW 20 28 11 15 1009.2 1008.0 0.0
01/12:30pm 30.8 30.8 18.2 47 8.2 WNW 15 19 8 10 1009.7 1008.6 0.0
01/12:00pm 30.2 28.9 16.9 44 8.5 NW 19 26 10 14 1009.8 1008.7 0.0
01/11:30am 30.2 30.4 17.6 46 8.1 NNW 13 22 7 12 1010.0 1008.9 0.0
01/11:00am 29.2 29.7 18.3 51 7.1 NW 13 20 7 11 1010.5 1009.3 0.0
01/10:30am 28.8 28.3 17.7 51 7.1 NW 17 26 9 14 1010.7 1009.2 0.0
01/10:00am 28.8 30.6 18.3 53 6.8 WNW 6 13 3 7 1010.6 1009.1 0.0
01/09:30am 27.4 28.8 17.8 55 6.1 NE 7 11 4 6 1010.4 1008.9 0.0
01/09:00am 26.6 28.3 18.5 61 5.2 E 7 9 4 5 1010.1 1008.6 0.0
01/08:30am 24.2 26.0 18.8 72 3.5 SSE 7 9 4 5 1009.9 1008.4 0.0
01/08:00am 22.2 24.0 18.8 81 2.2 SSE 7 9 4 5 1009.6 1008.1 0.0
01/07:30am 21.5 22.8 18.5 83 1.9 SSE 9 11 5 6 1009.3 1007.8 0.0
01/07:00am 19.9 21.0 17.1 84 1.7 S 7 11 4 6 1009.2 1007.7 0.0
01/06:30am 19.6 20.2 16.8 84 1.7 S 9 11 5 6 1008.8 1007.3 0.0
01/06:00am 19.9 20.8 16.5 81 2.1 SSE 7 7 4 4 1008.5 1007.0 0.0
01/05:30am 20.3 20.9 16.7 80 2.2 S 9 11 5 6 1008.2 1006.7 0.0
01/05:00am 20.3 20.9 16.9 81 2.1 SSE 9 9 5 5 1008.1 1006.6 0.0
01/04:30am 20.3 21.0 17.1 82 2.0 S 9 11 5 6 1007.9 1006.4 0.0
01/04:00am 19.9 20.3 16.2 79 2.2 S 9 11 5 6 1007.9 1006.4 0.0
01/03:30am 20.1 20.4 16.1 78 2.4 SSE 9 11 5 6 1007.9 1006.4 0.0
01/03:00am 20.8 21.2 16.2 75 2.8 SSE 9 11 5 6 1008.0 1006.5 0.0
01/02:30am 21.1 21.6 16.5 75 2.8 SSE 9 9 5 5 1008.2 1006.7 0.0
01/02:00am 21.6 21.9 16.1 71 3.4 SSE 9 9 5 5 1008.5 1007.0 0.0
01/01:30am 21.8 21.7 15.9 69 3.6 SE 11 13 6 7 1008.7 1007.2 0.0
01/01:00am 21.9 22.2 16.0 69 3.6 ESE 9 11 5 6 1008.9 1007.4 0.0
01/12:30am 20.8 21.4 16.8 78 2.5 S 9 11 5 6 1008.7 1007.2 0.0
01/12:00am 21.3 22.9 16.9 76 2.7 S 4 7 2 4 1008.8 1007.3 0.0
 
Date/Time
EDT
Temp
°C
App
Temp
°C
Dew
Point
Rel
Hum
%
Delta-T
°C
Wind Press
QNH
hPa
Press
MSL
hPa
Rain
since 9 am
mm
Dir
 
Spd
km/h
Gust
km/h
Spd
kts
Gust
kts
28/11:30pm 21.7 23.2 16.6 73 3.1 SSE 4 7 2 4 1008.8 1007.3 0.0
28/11:00pm 21.9 22.0 16.4 71 3.4 S 11 11 6 6 1008.7 1007.2 0.0
28/10:30pm 22.4 22.8 16.2 68 3.8 S 9 9 5 5 1008.8 1007.3 0.0
28/10:00pm 23.4 24.3 16.2 64 4.4 SSW 6 7 3 4 1008.8 1007.3 0.0
28/09:30pm 23.5 24.6 16.5 65 4.3 SSW 6 7 3 4 1008.5 1007.0 0.0
28/09:00pm 24.4 25.5 16.6 61 4.9 S 6 7 3 4 1008.0 1006.5 0.0
28/08:30pm 25.8 26.3 15.5 53 6.3 E 7 9 4 5 1007.5 1006.0 0.0
28/08:00pm 28.4 29.5 13.5 40 9.0 CALM 0 0 0 0 1007.2 1005.7 0.0
28/07:30pm 29.6 31.2 15.0 41 9.0 CALM 0 0 0 0 1007.0 1005.5 0.0
28/07:00pm 31.1 31.4 13.4 34 10.7 ENE 4 7 2 4 1006.8 1005.2 0.0
28/06:30pm 32.0 31.5 12.8 31 11.6 NNE 7 11 4 6 1006.7 1005.1 0.0
28/06:00pm 32.1 31.6 12.8 30 11.7 NE 7 17 4 9 1006.6 1005.0 0.0
28/05:30pm 32.4 32.1 12.6 30 11.9 NNE 6 13 3 7 1006.7 1005.1 0.0
28/05:00pm 32.0 30.9 13.2 31 11.4 W 11 13 6 7 1006.8 1005.2 0.0
28/04:30pm 30.9 30.4 13.7 35 10.5 W 9 13 5 7 1007.0 1005.5 0.0
28/04:00pm 30.8 29.9 12.7 33 10.9 WSW 9 11 5 6 1007.3 1005.8 0.0
28/03:30pm 31.3 31.1 13.1 33 11.0 N 6 13 3 7 1007.5 1006.0 0.0
28/03:00pm 31.8 31.6 13.1 32 11.3 E 6 15 3 8 1007.9 1006.4 0.0
28/02:30pm 30.7 30.1 13.5 35 10.4 E 9 13 5 7 1008.5 1007.0 0.0
28/02:00pm 31.5 31.4 15.0 36 10.3 SE 9 15 5 8 1008.7 1007.2 0.0
28/01:30pm 31.2 31.0 15.6 39 9.8 SSW 11 19 6 10 1009.2 1007.7 0.0
28/01:00pm 29.8 30.1 15.1 40 9.1 SW 7 11 4 6 1009.6 1008.1 0.0
28/12:30pm 29.3 29.7 15.4 42 8.6 ENE 7 11 4 6 1009.7 1008.2 0.0
28/12:00pm 28.7 29.0 15.9 45 8.0 S 9 13 5 7 1010.0 1008.5 0.0
28/11:30am 28.1 28.5 15.4 46 7.8 E 7 11 4 6 1010.7 1009.2 0.0
28/11:00am 27.5 27.7 15.8 48 7.3 E 9 15 5 8 1010.9 1009.4 0.0
28/10:30am 27.1 27.6 15.5 49 7.1 E 7 13 4 7 1011.2 1009.7 0.0
28/10:00am 26.2 26.6 16.2 54 6.2 ESE 9 15 5 8 1011.1 1009.6 0.0
28/09:30am 24.3 24.3 16.3 61 4.9 SE 11 17 6 9 1011.1 1009.6 0.0
28/09:00am 23.6 22.8 16.1 62 4.6 SE 15 20 8 11 1011.1 1009.6 0.0
28/08:30am 22.4 21.6 16.0 67 3.9 ESE 15 20 8 11 1010.9 1009.4 0.0
28/08:00am 21.2 20.4 16.2 73 3.0 SSE 15 17 8 9 1011.0 1009.5 0.0
28/07:30am 20.0 18.7 15.8 77 2.5 SE 17 20 9 11 1010.6 1009.1 0.0
28/07:00am 19.5 18.5 15.6 78 2.3 SE 15 19 8 10 1010.3 1008.7 0.0
28/06:30am 20.0 18.5 15.4 75 2.8 SE 17 20 9 11 1009.9 1008.4 0.0
28/06:00am 20.6 20.1 15.8 74 2.9 SE 13 17 7 9 1009.8 1008.3 0.0
28/05:30am 20.5 20.0 15.9 75 2.8 SE 13 17 7 9 1009.4 1007.9 0.0
28/05:00am 20.6 19.8 16.0 75 2.8 SE 15 19 8 10 1009.0 1007.5 0.0
28/04:30am 20.1 19.5 15.7 76 2.6 SE 13 17 7 9 1008.8 1007.3 0.0
28/04:00am 20.0 19.5 15.8 77 2.5 SSE 13 15 7 8 1008.9 1007.4 0.0
28/03:30am 20.4 19.9 16.0 76 2.7 SE 13 17 7 9 1009.0 1007.5 0.0
28/03:00am 20.5 20.0 15.9 75 2.8 SE 13 15 7 8 1009.1 1007.6 0.0
28/02:30am 20.8 21.0 15.8 73 3.0 SE 9 13 5 7 1009.1 1007.6 0.0
28/02:00am 20.8 21.0 15.8 73 3.0 SE 9 11 5 6 1009.4 1007.9 0.0
28/01:30am 21.6 21.1 15.9 70 3.5 ESE 13 15 7 8 1009.4 1007.9 0.0
28/01:00am 21.5 20.9 15.6 69 3.6 SE 13 17 7 9 1009.7 1008.2 0.0
28/12:30am 22.3 21.3 15.6 66 4.1 SE 15 19 8 10 1009.9 1008.4 0.0
28/12:00am 22.5 21.6 15.8 66 4.1 SE 15 20 8 11 1010.0 1008.5 0.0

Other Formats:

Comma delimited format used in spreadsheet applications
http://www.bom.gov.au/fwo/IDN60801/IDN60801.95740.axf

JavaScript Object Notation format (JSON) in row-major order
http://www.bom.gov.au/fwo/IDN60801/IDN60801.95740.json